Ivora, Brazil
Current Conditions -  °F | °C
As of 12:00 PM on Wednesday 28 Jan 2015 (Local Time) from SBSM Reporting Station
Broken Clouds Broken Clouds  
Wind Chill: 86°   Ceiling: 10000
Heat Index: 92°   Visibility: 6mi
Dew Point: 72°   Wind: 8mph
Humidity: 62%   Direction: 330°NNW
Pressure: 29.8"   Gusts: NA
Location:  29.52°S, 53.58°W
Report Text: SBSM 281400Z 33007KT 290V350 9999 FEW030 BKN100 30/22 Q1009
Loading
Personal Weather Stations






























Interactive Weather Map New forecast layout! Learn more

10-Day Weather Forecast

Advertisements
Track Severe Weather on mobile